Time;durP1;ratioP1;P1;durP2;ratioP2;P2;SDS_P1;SDS_P2;PMS_P1;PMS_P2;Temp;Humidity;BMP_temperature;BMP_pressure;BME280_temperature;BME280_humidity;BME280_pressure;Samples;Min_cycle;Max_cycle;Signal;HPM_P1;HPM_P2
2023/05/05 00:01:08;;;;;;;;;;;;;;;-142.75;100.00;76595.88;4989755;28;19924;-68
2023/05/05 00:03:34;;;;;;;;;;;;;;;-142.75;100.00;76607.69;4989184;28;19918;-68
2023/05/05 00:05:59;;;;;;;;;;;;;;;-142.75;100.00;76607.69;4989423;28;19918;-68
2023/05/05 00:08:24;;;;;;;;;;;;;;;-142.75;100.00;76597.84;4989393;28;20001;-65
2023/05/05 00:10:50;;;;;;;;;;;;;;;-142.75;100.00;76593.91;4989836;28;20004;-66
2023/05/05 00:13:16;;;;;;;;;;;;;;;-142.75;100.00;76595.88;4989711;28;20295;-66
2023/05/05 00:15:41;;;;;;;;;;;;;;;-142.75;100.00;76593.91;4989078;28;19921;-67
2023/05/05 00:18:06;;;;;;;;;;;;;;;-142.75;100.00;76601.78;4989336;28;19983;-65
2023/05/05 00:20:32;;;;;;;;;;;;;;;-142.75;100.00;76597.84;4989571;28;20677;-66
2023/05/05 00:22:57;;;;;;;;;;;;;;;-142.75;100.00;76617.53;4987781;28;20428;-66
2023/05/05 00:25:22;;;;;;;;;;;;;;;-142.75;100.00;76607.69;4989039;28;19914;-67
2023/05/05 00:27:47;;;;;;;;;;;;;;;-142.75;100.00;76593.91;4989318;28;19921;-65
2023/05/05 00:30:13;;;;;;;;;;;;;;;-142.75;100.00;76576.19;4989119;28;20008;-66
2023/05/05 00:32:38;;;;;;;;;;;;;;;-142.75;100.00;76566.34;4989078;28;19960;-68
2023/05/05 00:35:04;;;;;;;;;;;;;;;-142.75;100.00;76564.38;4988964;28;19913;-66
2023/05/05 00:37:29;;;;;;;;;;;;;;;-142.75;100.00;76564.38;4989048;28;20305;-66
2023/05/05 00:39:54;;;;;;;;;;;;;;;-142.75;100.00;76570.28;4989088;28;19920;-67
2023/05/05 00:42:19;;;;;;;;;;;;;;;-142.75;100.00;76582.09;4989348;28;20402;-66
2023/05/05 00:44:45;;;;;;;;;;;;;;;-142.75;100.00;76593.91;4988272;28;19920;-67
2023/05/05 00:47:11;;;;;;;;;;;;;;;-142.75;100.00;76582.09;4988576;28;19921;-67
2023/05/05 00:49:37;;;;;;;;;;;;;;;-142.75;100.00;76589.97;4988998;28;20012;-68
2023/05/05 00:52:02;;;;;;;;;;;;;;;-142.75;100.00;76591.94;4988690;28;19957;-66
2023/05/05 00:54:28;;;;;;;;;;;;;;;-142.75;100.00;76593.91;4988341;28;19913;-68
2023/05/05 00:56:53;;;;;;;;;;;;;;;-142.75;100.00;76589.97;4988721;28;19959;-63
2023/05/05 00:59:19;;;;;;;;;;;;;;;-142.75;100.00;76588.00;4970934;28;19913;-67
2023/05/05 01:01:44;;;;;;;;;;;;;;;-142.75;100.00;76593.91;4988549;28;19918;-68
2023/05/05 01:04:09;;;;;;;;;;;;;;;-142.75;100.00;76586.03;4988235;28;19944;-67
2023/05/05 01:06:47;;;;;;;;;;;;;;;-142.75;100.00;76593.91;4988450;28;20375;-66
2023/05/05 01:09:23;;;;;;;;;;;;;;;-142.75;100.00;76593.91;4987185;28;20007;-67
2023/05/05 01:11:54;;;;;;;;;;;;;;;-142.75;100.00;76593.91;4988497;28;20493;-68
2023/05/05 01:14:24;;;;;;;;;;;;;;;-142.75;100.00;76609.66;4988893;28;19992;-67
2023/05/05 01:16:56;;;;;;;;;;;;;;;-142.75;100.00;76633.28;4988197;28;20420;-66
2023/05/05 01:19:28;;;;;;;;;;;;;;;-142.75;100.00;76625.41;4988026;28;20274;-65
2023/05/05 01:21:59;;;;;;;;;;;;;;;-142.75;100.00;76617.53;4988134;28;19914;-67
2023/05/05 01:24:43;;;;;;;;;;;;;;;-142.75;100.00;76619.50;4987654;28;20524;-66
2023/05/05 01:27:18;;;;;;;;;;;;;;;-142.75;100.00;76617.53;4987843;28;20398;-69
2023/05/05 01:29:49;;;;;;;;;;;;;;;-142.75;100.00;76627.38;4987860;28;20598;-66
2023/05/05 01:32:16;;;;;;;;;;;;;;;-142.75;100.00;76637.22;4987805;28;19920;-66
2023/05/05 01:34:44;;;;;;;;;;;;;;;-142.75;100.00;76645.09;4987736;28;20486;-66
2023/05/05 01:37:17;;;;;;;;;;;;;;;-142.75;100.00;76662.81;4987735;28;19917;-68
2023/05/05 01:39:45;;;;;;;;;;;;;;;-142.75;100.00;76664.78;4988033;28;20430;-67
2023/05/05 01:42:13;;;;;;;;;;;;;;;-142.75;100.00;76692.34;4988311;28;19936;-67
2023/05/05 01:44:41;;;;;;;;;;;;;;;-142.75;100.00;76688.41;4987662;28;19928;-66
2023/05/05 01:47:08;;;;;;;;;;;;;;;-142.75;100.00;76702.19;4986193;28;19918;-68
2023/05/05 01:49:34;;;;;;;;;;;;;;;-142.75;100.00;76710.06;4987938;28;20295;-65
2023/05/05 01:52:02;;;;;;;;;;;;;;;-142.75;100.00;76715.97;4986421;28;20604;-66
2023/05/05 01:54:28;;;;;;;;;;;;;;;-142.75;100.00;76723.84;4987348;28;19961;-67
2023/05/05 01:56:55;;;;;;;;;;;;;;;-142.75;100.00;76735.66;4986633;28;19925;-67
2023/05/05 01:59:22;;;;;;;;;;;;;;;-142.75;100.00;76731.72;4987839;28;19920;-69
2023/05/05 02:01:48;;;;;;;;;;;;;;;-142.75;100.00;76727.78;4985636;28;19914;-66
2023/05/05 02:04:13;;;;;;;;;;;;;;;-142.75;100.00;76725.81;4986915;28;20454;-65
2023/05/05 02:06:39;;;;;;;;;;;;;;;-142.75;100.00;76729.75;4987064;28;20302;-66
2023/05/05 02:09:05;;;;;;;;;;;;;;;-142.75;100.00;76729.75;4987076;28;19914;-69
2023/05/05 02:11:31;;;;;;;;;;;;;;;-142.75;100.00;76723.84;4987060;28;19976;-67
2023/05/05 02:13:57;;;;;;;;;;;;;;;-142.75;100.00;76731.72;4987465;28;19920;-67
2023/05/05 02:16:23;;;;;;;;;;;;;;;-142.75;100.00;76733.69;4987227;28;20394;-66
2023/05/05 02:18:49;;;;;;;;;;;;;;;-142.75;100.00;76735.66;4969570;28;19925;-68
2023/05/05 02:21:16;;;;;;;;;;;;;;;-142.75;100.00;76743.53;4986900;28;20280;-66
2023/05/05 02:23:42;;;;;;;;;;;;;;;-142.75;100.00;76741.56;4986887;28;20047;-66
2023/05/05 02:26:09;;;;;;;;;;;;;;;-142.75;100.00;76739.59;4986663;28;20012;-64
2023/05/05 02:28:39;;;;;;;;;;;;;;;-142.75;100.00;76755.34;4986846;28;19917;-67
2023/05/05 02:31:06;;;;;;;;;;;;;;;-142.75;100.00;76755.34;4986735;28;19913;-65
2023/05/05 02:33:32;;;;;;;;;;;;;;;-142.75;100.00;76753.38;4986761;28;19914;-67
2023/05/05 02:36:03;;;;;;;;;;;;;;;-142.75;100.00;76757.31;4986691;28;19921;-68
2023/05/05 02:38:29;;;;;;;;;;;;;;;-142.75;100.00;76775.03;4986717;28;19917;-65
2023/05/05 02:40:56;;;;;;;;;;;;;;;-142.75;100.00;76767.16;4986528;28;19929;-69
2023/05/05 02:43:23;;;;;;;;;;;;;;;-142.75;100.00;76780.94;4985933;28;19949;-67
2023/05/05 02:45:48;;;;;;;;;;;;;;;-142.75;100.00;76786.84;4985156;28;19924;-67
2023/05/05 02:48:13;;;;;;;;;;;;;;;-142.75;100.00;76790.78;4985035;28;19914;-66
2023/05/05 02:50:39;;;;;;;;;;;;;;;-142.75;100.00;76780.94;4987098;28;19921;-67
2023/05/05 02:53:04;;;;;;;;;;;;;;;-142.75;100.00;76780.94;4985141;28;20000;-68
2023/05/05 02:55:38;;;;;;;;;;;;;;;-142.75;100.00;76782.91;4986330;28;19914;-68
2023/05/05 02:58:05;;;;;;;;;;;;;;;-142.75;100.00;76784.88;4986530;28;19917;-66
2023/05/05 03:00:38;;;;;;;;;;;;;;;-142.75;100.00;76806.50;4985417;28;19914;-66
2023/05/05 03:03:22;;;;;;;;;;;;;;;-142.75;100.00;76810.44;4986270;28;20477;-68
2023/05/05 03:05:52;;;;;;;;;;;;;;;-142.75;100.00;76802.56;4986227;28;19996;-66
2023/05/05 03:08:35;;;;;;;;;;;;;;;-142.75;100.00;76808.50;4986173;28;19914;-66
2023/05/05 03:11:04;;;;;;;;;;;;;;;-142.75;100.00;76788.81;4986133;28;20433;-66
2023/05/05 03:13:31;;;;;;;;;;;;;;;-142.75;100.00;76778.97;4986616;28;19914;-66
2023/05/05 03:15:57;;;;;;;;;;;;;;;-142.75;100.00;76765.19;4985980;28;19914;-66
2023/05/05 03:18:23;;;;;;;;;;;;;;;-142.75;100.00;76777.00;4985956;28;20433;-66
2023/05/05 03:20:49;;;;;;;;;;;;;;;-142.75;100.00;76782.91;4986610;28;20391;-66
2023/05/05 03:23:19;;;;;;;;;;;;;;;-142.75;100.00;76775.03;4985896;28;19914;-67
2023/05/05 03:25:45;;;;;;;;;;;;;;;-142.75;100.00;76773.06;4984905;28;20403;-68
2023/05/05 03:28:11;;;;;;;;;;;;;;;-142.75;100.00;76775.03;4985992;28;19929;-68
2023/05/05 03:30:36;;;;;;;;;;;;;;;-142.75;100.00;76782.91;4986156;28;19929;-66
2023/05/05 03:33:01;;;;;;;;;;;;;;;-142.75;100.00;76792.75;4986277;28;19913;-67
2023/05/05 03:35:27;;;;;;;;;;;;;;;-142.75;100.00;76786.84;4985651;28;20323;-69
2023/05/05 03:37:54;;;;;;;;;;;;;;;-142.75;100.00;76814.38;4986186;28;19917;-68
2023/05/05 03:40:19;;;;;;;;;;;;;;;-142.75;100.00;76810.44;4986380;28;19917;-68
2023/05/05 03:42:44;;;;;;;;;;;;;;;-142.75;100.00;76800.63;4983692;28;19928;-66
2023/05/05 03:45:10;;;;;;;;;;;;;;;-142.75;100.00;76806.50;4985617;28;20373;-67
2023/05/05 03:47:35;;;;;;;;;;;;;;;-142.75;100.00;76816.34;4985977;28;19921;-66
2023/05/05 03:50:00;;;;;;;;;;;;;;;-142.75;100.00;76822.25;4986276;28;19933;-66
2023/05/05 03:52:25;;;;;;;;;;;;;;;-142.75;100.00;76818.31;4985885;28;20068;-65
2023/05/05 03:54:50;;;;;;;;;;;;;;;-142.75;100.00;76826.19;4985813;28;19914;-66
2023/05/05 03:57:16;;;;;;;;;;;;;;;-142.75;100.00;76839.97;4986028;28;20111;-66
2023/05/05 03:59:41;;;;;;;;;;;;;;;-142.75;100.00;76853.75;4985924;28;19914;-66
2023/05/05 04:02:06;;;;;;;;;;;;;;;-142.75;100.00;76849.81;4985813;28;19964;-68
2023/05/05 04:04:31;;;;;;;;;;;;;;;-142.75;100.00;76836.03;4986559;28;19957;-67
2023/05/05 04:06:56;;;;;;;;;;;;;;;-142.75;100.00;76839.97;4978516;28;19928;-67
2023/05/05 04:09:22;;;;;;;;;;;;;;;-142.75;100.00;76843.91;4969548;28;20527;-67
2023/05/05 04:11:47;;;;;;;;;;;;;;;-142.75;100.00;76851.78;4987375;28;19984;-66
2023/05/05 04:14:12;;;;;;;;;;;;;;;-142.75;100.00;76838.00;4986668;28;19913;-67
2023/05/05 04:16:37;;;;;;;;;;;;;;;-142.75;100.00;76839.97;4986980;28;19924;-67
2023/05/05 04:19:03;;;;;;;;;;;;;;;-142.75;100.00;76845.88;4987144;28;19916;-68
2023/05/05 04:21:28;;;;;;;;;;;;;;;-142.75;100.00;76828.16;4989416;28;19924;-65
2023/05/05 04:23:53;;;;;;;;;;;;;;;-142.75;100.00;76843.91;4982332;28;19953;-66
2023/05/05 04:26:18;;;;;;;;;;;;;;;-142.75;100.00;76849.81;4990604;28;20013;-66
2023/05/05 04:28:43;;;;;;;;;;;;;;;-142.75;100.00;76838.00;4990452;28;19936;-66
2023/05/05 04:31:09;;;;;;;;;;;;;;;-142.75;100.00;76857.69;4990538;28;20538;-66
2023/05/05 04:33:34;;;;;;;;;;;;;;;-142.75;100.00;76853.75;4990429;28;19913;-68
2023/05/05 04:35:59;;;;;;;;;;;;;;;-142.75;100.00;76836.03;4990495;28;19921;-68
2023/05/05 04:38:25;;;;;;;;;;;;;;;-142.75;100.00;76838.00;4990124;28;19913;-68
2023/05/05 04:40:52;;;;;;;;;;;;;;;-142.75;100.00;76830.13;4990586;28;19959;-66
2023/05/05 04:43:18;;;;;;;;;;;;;;;-142.75;100.00;76818.31;4990209;28;19914;-66
2023/05/05 04:45:53;;;;;;;;;;;;;;;-142.75;100.00;76832.09;4989859;28;20387;-67
2023/05/05 04:48:19;;;;;;;;;;;;;;;-142.75;100.00;76830.13;4990347;28;20070;-68
2023/05/05 04:50:45;;;;;;;;;;;;;;;-142.75;100.00;76830.13;4989951;28;19913;-66
2023/05/05 04:53:10;;;;;;;;;;;;;;;-142.75;100.00;76814.38;4990002;28;19927;-66
2023/05/05 04:55:35;;;;;;;;;;;;;;;-142.75;100.00;76804.53;4989875;28;20019;-66
2023/05/05 04:58:00;;;;;;;;;;;;;;;-142.75;100.00;76806.50;4989975;28;20007;-67
2023/05/05 05:00:26;;;;;;;;;;;;;;;-142.75;100.00;76792.75;4989827;28;19913;-66
2023/05/05 05:02:52;;;;;;;;;;;;;;;-142.75;100.00;76784.88;4990111;28;20341;-66
2023/05/05 05:05:17;;;;;;;;;;;;;;;-142.75;100.00;76773.06;4989470;28;19914;-65
2023/05/05 05:07:42;;;;;;;;;;;;;;;-142.75;100.00;76778.97;4989887;28;20344;-65
2023/05/05 05:10:07;;;;;;;;;;;;;;;-142.75;100.00;76759.28;4988497;28;20449;-65
2023/05/05 05:12:33;;;;;;;;;;;;;;;-142.75;100.00;76761.25;5018921;23;19921;-64
2023/05/05 05:15:00;;;;;;;;;;;;;;;-142.75;100.00;76751.41;5003293;28;19933;-63
2023/05/05 05:17:25;;;;;;;;;;;;;;;-142.75;100.00;76739.59;5007250;28;19920;-64
2023/05/05 05:19:51;;;;;;;;;;;;;;;-142.75;100.00;76753.38;5008166;28;19913;-64
2023/05/05 05:22:16;;;;;;;;;;;;;;;-142.75;100.00;76743.53;5008871;28;19956;-64
2023/05/05 05:24:41;;;;;;;;;;;;;;;-142.75;100.00;76727.78;5008887;28;20196;-64
2023/05/05 05:27:08;;;;;;;;;;;;;;;-142.75;100.00;76710.06;5009147;28;19922;-64
2023/05/05 05:29:33;;;;;;;;;;;;;;;-142.75;100.00;76682.50;5002534;28;19953;-64
2023/05/05 05:31:58;;;;;;;;;;;;;;;-142.75;100.00;76678.56;4999476;28;19944;-64
2023/05/05 05:34:23;;;;;;;;;;;;;;;-142.75;100.00;76670.69;5008397;28;20024;-64
2023/05/05 05:36:49;;;;;;;;;;;;;;;-142.75;100.00;76656.91;5009118;28;19921;-64
2023/05/05 05:39:14;;;;;;;;;;;;;;;-142.75;100.00;76637.22;5008801;28;20255;-64
2023/05/05 05:41:39;;;;;;;;;;;;;;;-142.75;100.00;76645.09;5008976;28;20387;-64
2023/05/05 05:44:04;;;;;;;;;;;;;;;-142.75;100.00;76633.28;5008748;28;19913;-64
2023/05/05 05:46:30;;;;;;;;;;;;;;;-142.75;100.00;76633.28;4991495;28;20016;-64
2023/05/05 05:48:55;;;;;;;;;;;;;;;-142.75;100.00;76609.66;4989065;28;20127;-64
2023/05/05 05:51:20;;;;;;;;;;;;;;;-142.75;100.00;76562.41;4989278;28;20393;-64
2023/05/05 05:53:45;;;;;;;;;;;;;;;-142.75;100.00;76558.47;4988935;28;20361;-63
2023/05/05 05:56:10;;;;;;;;;;;;;;;-142.75;100.00;76582.09;4987533;28;20094;-64
2023/05/05 05:58:36;;;;;;;;;;;;;;;-142.75;100.00;76582.09;4987625;28;19913;-64
2023/05/05 06:01:02;;;;;;;;;;;;;;;-142.75;100.00;76597.84;4988770;28;20015;-64
2023/05/05 06:03:28;;;;;;;;;;;;;;;-142.75;100.00;76605.72;4988772;28;19922;-64
2023/05/05 06:05:53;;;;;;;;;;;;;;;-142.75;100.00;76597.84;4988528;28;20305;-62
2023/05/05 06:08:18;;;;;;;;;;;;;;;-142.75;100.00;76599.81;4988876;28;20526;-64
2023/05/05 06:10:43;;;;;;;;;;;;;;;-142.75;100.00;76570.28;4988424;28;19922;-64
2023/05/05 06:13:08;;;;;;;;;;;;;;;-142.75;100.00;76574.22;4988322;28;19914;-64
2023/05/05 06:15:34;;;;;;;;;;;;;;;-142.75;100.00;76566.34;4988482;28;19925;-64
2023/05/05 06:17:59;;;;;;;;;;;;;;;-142.75;100.00;76578.16;4988612;28;19997;-64
2023/05/05 06:20:25;;;;;;;;;;;;;;;-142.75;100.00;76560.44;4988255;28;19918;-63
2023/05/05 06:22:50;;;;;;;;;;;;;;;-142.75;100.00;76550.59;4988666;28;20269;-64
2023/05/05 06:25:15;;;;;;;;;;;;;;;-142.75;100.00;76550.59;4988177;28;19913;-64
2023/05/05 06:27:41;;;;;;;;;;;;;;;-142.75;100.00;76562.41;4988260;28;19932;-64
2023/05/05 06:30:06;;;;;;;;;;;;;;;-142.75;100.00;76578.16;4992920;28;19913;-64
2023/05/05 06:32:31;;;;;;;;;;;;;;;-142.75;100.00;76570.28;5007818;28;19920;-64
2023/05/05 06:34:57;;;;;;;;;;;;;;;-142.75;100.00;76586.03;4999948;28;19920;-63
2023/05/05 06:37:22;;;;;;;;;;;;;;;-142.75;100.00;76582.09;4988601;28;19917;-64
2023/05/05 06:39:47;;;;;;;;;;;;;;;-142.75;100.00;76582.09;4989028;28;19914;-64
2023/05/05 06:42:13;;;;;;;;;;;;;;;-142.75;100.00;76556.50;4988277;28;20407;-64
2023/05/05 06:44:38;;;;;;;;;;;;;;;-142.75;100.00;76534.84;4989478;28;19921;-64
2023/05/05 06:47:03;;;;;;;;;;;;;;;-142.75;100.00;76503.38;5005152;28;19972;-63
2023/05/05 06:49:29;;;;;;;;;;;;;;;-142.75;100.00;76473.84;4993943;28;19913;-63
2023/05/05 06:51:54;;;;;;;;;;;;;;;-142.75;100.00;76473.84;4977123;28;19921;-63
2023/05/05 06:54:19;;;;;;;;;;;;;;;-142.75;100.00;76460.06;4989832;28;19953;-63
2023/05/05 06:56:45;;;;;;;;;;;;;;;-142.75;100.00;76424.63;4989526;28;19964;-63
2023/05/05 06:59:10;;;;;;;;;;;;;;;-142.75;100.00;76399.03;4987936;28;19940;-63
2023/05/05 07:01:35;;;;;;;;;;;;;;;-142.75;100.00;76373.44;4985224;28;19922;-63
2023/05/05 07:04:01;;;;;;;;;;;;;;;-142.75;100.00;76393.13;4987030;28;20310;-63
2023/05/05 07:06:26;;;;;;;;;;;;;;;-142.75;100.00;76361.63;4990058;28;20367;-63
2023/05/05 07:08:51;;;;;;;;;;;;;;;-142.75;100.00;76369.50;4988967;28;19960;-63
2023/05/05 07:11:16;;;;;;;;;;;;;;;-142.75;100.00;76357.69;4985342;28;19921;-63
2023/05/05 07:13:44;;;;;;;;;;;;;;;-142.75;100.00;76365.56;4985689;28;19921;-64
2023/05/05 07:16:09;;;;;;;;;;;;;;;-142.75;100.00;76310.47;4987553;28;20000;-64
2023/05/05 07:18:34;;;;;;;;;;;;;;;-142.75;100.00;76271.09;4988601;28;20004;-64
2023/05/05 07:21:00;;;;;;;;;;;;;;;-142.75;100.00;76298.66;4988611;28;20005;-64
2023/05/05 07:23:25;;;;;;;;;;;;;;;-142.75;100.00;76316.38;4999081;28;19922;-64
2023/05/05 07:25:50;;;;;;;;;;;;;;;-142.75;100.00;76310.47;4990897;28;20385;-64
2023/05/05 07:28:16;;;;;;;;;;;;;;;-142.75;100.00;76304.56;4989085;28;19913;-64
2023/05/05 07:30:41;;;;;;;;;;;;;;;-142.75;100.00;76280.94;4987335;28;20473;-63
2023/05/05 07:33:06;;;;;;;;;;;;;;;-142.75;100.00;76302.59;4987955;28;20414;-64
2023/05/05 07:35:32;;;;;;;;;;;;;;;-142.75;100.00;76306.53;4987905;28;20009;-64
2023/05/05 07:37:57;;;;;;;;;;;;;;;-142.75;100.00;76302.59;4988521;28;19984;-65
2023/05/05 07:40:22;;;;;;;;;;;;;;;-142.75;100.00;76294.72;4990840;28;19922;-66
2023/05/05 07:42:47;;;;;;;;;;;;;;;-142.75;100.00;76310.47;4985715;28;19952;-64
2023/05/05 07:45:12;;;;;;;;;;;;;;;-142.75;100.00;76343.94;4986677;28;19929;-66
2023/05/05 07:47:39;;;;;;;;;;;;;;;-142.75;100.00;76345.91;4986861;28;19918;-65
2023/05/05 07:50:04;;;;;;;;;;;;;;;-142.75;100.00;76328.19;4987409;28;19913;-65
2023/05/05 07:52:29;;;;;;;;;;;;;;;-142.75;100.00;76326.22;4986679;28;19914;-64
2023/05/05 07:54:55;;;;;;;;;;;;;;;-142.75;100.00;76330.16;4984665;28;19967;-64
2023/05/05 07:57:20;;;;;;;;;;;;;;;-142.75;100.00;76361.63;4991144;28;19992;-66
2023/05/05 07:59:45;;;;;;;;;;;;;;;-142.75;100.00;76414.78;4991231;28;19960;-65
2023/05/05 08:02:11;;;;;;;;;;;;;;;-142.75;100.00;76452.19;4994035;28;19920;-65
2023/05/05 08:04:39;;;;;;;;;;;;;;;-142.75;100.00;76436.44;5010224;28;19921;-65
2023/05/05 08:07:05;;;;;;;;;;;;;;;-142.75;100.00;76434.47;5008744;28;19921;-64
2023/05/05 08:09:30;;;;;;;;;;;;;;;-142.75;100.00;76452.19;5010026;28;19921;-64
2023/05/05 08:11:55;;;;;;;;;;;;;;;-142.75;100.00;76454.16;4981956;28;19921;-65
2023/05/05 08:14:20;;;;;;;;;;;;;;;-142.75;100.00;76436.44;4990151;28;19946;-65
2023/05/05 08:16:45;;;;;;;;;;;;;;;-142.75;100.00;76440.38;4990258;28;19921;-65
2023/05/05 08:19:11;;;;;;;;;;;;;;;-142.75;100.00;76460.06;4990026;28;19914;-66
2023/05/05 08:21:36;;;;;;;;;;;;;;;-142.75;100.00;76464.00;4989608;28;19919;-65
2023/05/05 08:24:01;;;;;;;;;;;;;;;-142.75;100.00;76454.16;4989289;28;20008;-64
2023/05/05 08:26:26;;;;;;;;;;;;;;;-142.75;100.00;76471.88;4992917;28;19960;-65
2023/05/05 08:28:54;;;;;;;;;;;;;;;-142.75;100.00;76464.00;4999912;28;19996;-66
2023/05/05 08:31:19;;;;;;;;;;;;;;;-142.75;100.00;76471.88;4990774;28;19960;-66
2023/05/05 08:33:44;;;;;;;;;;;;;;;-142.75;100.00;76464.00;4990211;28;19917;-65
2023/05/05 08:36:10;;;;;;;;;;;;;;;-142.75;100.00;76464.00;5000472;28;19920;-66
2023/05/05 08:38:35;;;;;;;;;;;;;;;-142.75;100.00;76473.84;5010356;28;19939;-66
2023/05/05 08:41:00;;;;;;;;;;;;;;;-142.75;100.00;76464.00;5010285;28;19917;-66
2023/05/05 08:43:26;;;;;;;;;;;;;;;-142.75;100.00;76473.84;4993941;28;19913;-65
2023/05/05 08:45:51;;;;;;;;;;;;;;;-142.75;100.00;76491.56;4990354;28;20361;-66
2023/05/05 08:48:18;;;;;;;;;;;;;;;-142.75;100.00;76491.56;4990187;28;20370;-66
2023/05/05 08:50:45;;;;;;;;;;;;;;;-142.75;100.00;76487.63;4990906;28;19922;-66
2023/05/05 08:53:15;;;;;;;;;;;;;;;-142.75;100.00;76507.31;4990783;28;19917;-65
2023/05/05 08:55:55;;;;;;;;;;;;;;;-142.75;100.00;76523.06;4992609;28;19984;-65
2023/05/05 08:58:24;;;;;;;;;;;;;;;-142.75;100.00;76515.19;5001515;28;19913;-65
2023/05/05 09:00:49;;;;;;;;;;;;;;;-142.75;100.00;76527.00;4990537;28;19913;-65
2023/05/05 09:03:15;;;;;;;;;;;;;;;-142.75;100.00;76536.84;4989833;28;20358;-65
2023/05/05 09:05:41;;;;;;;;;;;;;;;-142.75;100.00;76542.72;5004821;28;19914;-64
2023/05/05 09:08:09;;;;;;;;;;;;;;;-142.75;100.00;76532.88;4995941;28;19932;-64
2023/05/05 09:10:35;;;;;;;;;;;;;;;-142.75;100.00;76552.56;4994229;28;19952;-63
2023/05/05 09:13:00;;;;;;;;;;;;;;;-142.75;100.00;76530.91;4989452;28;19914;-64
2023/05/05 09:15:27;;;;;;;;;;;;;;;-142.75;100.00;76530.91;4989510;28;20407;-64
2023/05/05 09:17:55;;;;;;;;;;;;;;;-142.75;100.00;76534.84;5008289;28;19913;-64
2023/05/05 09:20:21;;;;;;;;;;;;;;;-142.75;100.00;76542.72;5006666;28;20382;-64
2023/05/05 09:22:46;;;;;;;;;;;;;;;-142.75;100.00;76558.47;4989127;28;19920;-65
2023/05/05 09:25:12;;;;;;;;;;;;;;;-142.75;100.00;76568.31;4988976;28;20147;-65
2023/05/05 09:27:47;;;;;;;;;;;;;;;-142.75;100.00;76582.09;4999010;28;19917;-65
2023/05/05 09:30:16;;;;;;;;;;;;;;;-142.75;100.00;76601.78;4989506;28;20298;-66
2023/05/05 09:32:42;;;;;;;;;;;;;;;-142.75;100.00;76578.16;4989495;28;19913;-65
2023/05/05 09:35:08;;;;;;;;;;;;;;;-142.75;100.00;76582.09;4988649;28;19922;-66
2023/05/05 09:37:33;;;;;;;;;;;;;;;-142.75;100.00;76591.94;4988946;28;19922;-65
2023/05/05 09:40:02;;;;;;;;;;;;;;;-142.75;100.00;76619.50;4989273;28;20446;-65
2023/05/05 09:42:27;;;;;;;;;;;;;;;-142.75;100.00;76651.00;4988902;28;19914;-65
2023/05/05 09:44:53;;;;;;;;;;;;;;;-142.75;100.00;76678.56;4989510;28;19968;-65
2023/05/05 09:47:19;;;;;;;;;;;;;;;-142.75;100.00;76694.31;4989682;28;19918;-65
2023/05/05 09:49:44;;;;;;;;;;;;;;;-142.75;100.00;76704.16;5004549;28;19913;-65
2023/05/05 09:52:16;;;;;;;;;;;;;;;-142.75;100.00;76763.22;4990116;28;20447;-65
2023/05/05 09:54:41;;;;;;;;;;;;;;;-142.75;100.00;76759.28;4992823;28;19921;-65
2023/05/05 09:57:07;;;;;;;;;;;;;;;-142.75;100.00;76727.78;4991117;28;19917;-65
2023/05/05 09:59:32;;;;;;;;;;;;;;;-142.75;100.00;76714.00;4988087;28;19922;-65
2023/05/05 10:02:18;;;;;;;;;;;;;;;-142.75;100.00;76710.06;4987346;28;19936;-65
2023/05/05 10:04:43;;;;;;;;;;;;;;;-142.75;100.00;76704.16;4987698;28;19922;-66
2023/05/05 10:07:20;;;;;;;;;;;;;;;-142.75;100.00;76739.59;4988835;28;19917;-66
2023/05/05 10:09:46;;;;;;;;;;;;;;;-142.75;100.00;76721.88;4989112;28;19917;-65
2023/05/05 10:12:11;;;;;;;;;;;;;;;-142.75;100.00;76723.84;4988454;28;19956;-65
2023/05/05 10:14:36;;;;;;;;;;;;;;;-142.75;100.00;76739.59;4988780;28;19971;-65
2023/05/05 10:17:01;;;;;;;;;;;;;;;-142.75;100.00;76735.66;4982592;28;19914;-65
2023/05/05 10:19:31;;;;;;;;;;;;;;;-142.75;100.00;76717.94;4989111;28;19914;-65
2023/05/05 10:22:01;;;;;;;;;;;;;;;-142.75;100.00;76727.78;4989381;28;19921;-65
2023/05/05 10:24:33;;;;;;;;;;;;;;;-142.75;100.00;76700.22;4989800;28;19920;-66
2023/05/05 10:27:01;;;;;;;;;;;;;;;-142.75;100.00;76684.47;4989794;28;19918;-64
2023/05/05 10:29:34;;;;;;;;;;;;;;;-142.75;100.00;76672.66;4988545;28;19918;-64
2023/05/05 10:32:05;;;;;;;;;;;;;;;-142.75;100.00;76651.00;4987741;28;20012;-63
2023/05/05 10:34:36;;;;;;;;;;;;;;;-142.75;100.00;76647.06;4987266;28;19914;-64
2023/05/05 10:37:03;;;;;;;;;;;;;;;-142.75;100.00;76641.16;4988263;28;19913;-65
2023/05/05 10:39:29;;;;;;;;;;;;;;;-142.75;100.00;76651.00;4989209;28;19921;-66
2023/05/05 10:41:58;;;;;;;;;;;;;;;-142.75;100.00;76651.00;4988644;28;20365;-65
2023/05/05 10:44:23;;;;;;;;;;;;;;;-142.75;100.00;76662.81;4987301;28;19913;-64
2023/05/05 10:46:49;;;;;;;;;;;;;;;-142.75;100.00;76652.97;4988894;28;19972;-66
2023/05/05 10:49:20;;;;;;;;;;;;;;;-142.75;100.00;76645.09;4988690;28;19940;-65
2023/05/05 10:51:48;;;;;;;;;;;;;;;-142.75;100.00;76662.81;4988630;28;20237;-66
2023/05/05 10:54:27;;;;;;;;;;;;;;;-142.75;100.00;76649.03;5004243;28;19960;-66
2023/05/05 10:56:52;;;;;;;;;;;;;;;-142.75;100.00;76615.56;5004999;28;19913;-65
2023/05/05 10:59:36;;;;;;;;;;;;;;;-142.75;100.00;76641.16;4988891;28;20631;-67
2023/05/05 11:02:16;;;;;;;;;;;;;;;-142.75;100.00;76660.84;4988407;28;20357;-66
2023/05/05 11:04:42;;;;;;;;;;;;;;;-142.75;100.00;76662.81;4988345;28;19913;-66
2023/05/05 11:07:07;;;;;;;;;;;;;;;-142.75;100.00;76668.72;4988820;28;19925;-67
2023/05/05 11:09:37;;;;;;;;;;;;;;;-142.75;100.00;76660.84;5003306;28;19921;-66
2023/05/05 11:12:04;;;;;;;;;;;;;;;-142.75;100.00;76668.72;5029521;23;20024;-68
2023/05/05 11:14:29;;;;;;;;;;;;;;;-142.75;100.00;76651.00;4980395;28;19928;-68
2023/05/05 11:16:54;;;;;;;;;;;;;;;-142.75;100.00;76649.03;4984514;28;19918;-68
2023/05/05 11:19:38;;;;;;;;;;;;;;;-142.75;100.00;76743.53;4987522;28;19957;-69
2023/05/05 11:22:03;;;;;;;;;;;;;;;-142.75;100.00;76753.38;4987425;28;19914;-68
2023/05/05 11:24:29;;;;;;;;;;;;;;;-142.75;100.00;76749.44;4987057;28;19922;-69
2023/05/05 11:26:54;;;;;;;;;;;;;;;-142.75;100.00;76780.94;4986123;28;19922;-69
2023/05/05 11:29:19;;;;;;;;;;;;;;;-142.75;100.00;76761.25;4987771;28;20335;-67
2023/05/05 11:31:46;;;;;;;;;;;;;;;-142.75;100.00;76780.94;4991127;28;19957;-69
2023/05/05 11:34:25;;;;;;;;;;;;;;;-142.75;100.00;76806.50;4991557;28;19914;-67
2023/05/05 11:36:51;;;;;;;;;;;;;;;-142.75;100.00;76794.69;4991947;28;20513;-68
2023/05/05 11:39:16;;;;;;;;;;;;;;;-142.75;100.00;76792.75;4991214;28;19957;-68
2023/05/05 11:41:51;;;;;;;;;;;;;;;-142.75;100.00;76802.56;4991469;28;19913;-68
2023/05/05 11:44:17;;;;;;;;;;;;;;;-142.75;100.00;76796.69;4991138;28;20016;-67
2023/05/05 11:46:52;;;;;;;;;;;;;;;-142.75;100.00;76794.69;4990096;28;19972;-68
2023/05/05 11:49:26;;;;;;;;;;;;;;;-142.75;100.00;76808.50;4991176;28;19913;-68
2023/05/05 11:51:55;;;;;;;;;;;;;;;-142.75;100.00;76814.38;4991124;28;19936;-67
2023/05/05 11:54:20;;;;;;;;;;;;;;;-142.75;100.00;76804.53;4991024;28;19913;-69
2023/05/05 11:56:50;;;;;;;;;;;;;;;-142.75;100.00;76784.88;4994148;28;20303;-68
2023/05/05 11:59:15;;;;;;;;;;;;;;;-142.75;100.00;76802.56;4990921;28;19967;-66
2023/05/05 12:01:41;;;;;;;;;;;;;;;-142.75;100.00;76790.78;4977840;28;19921;-69
2023/05/05 12:04:07;;;;;;;;;;;;;;;-142.75;100.00;76786.84;4990712;28;19928;-69
2023/05/05 12:06:32;;;;;;;;;;;;;;;-142.75;100.00;76778.97;4989890;28;19918;-68
2023/05/05 12:08:58;;;;;;;;;;;;;;;-142.75;100.00;76786.84;4991162;28;19913;-68
2023/05/05 12:11:24;;;;;;;;;;;;;;;-142.75;100.00;76784.88;4991009;28;19914;-66
2023/05/05 12:13:49;;;;;;;;;;;;;;;-142.75;100.00;76786.84;4990684;28;19941;-68
2023/05/05 12:16:15;;;;;;;;;;;;;;;-142.75;100.00;76782.91;4990734;28;20520;-68